sensor_id;sensor_type;location;lat;lon;timestamp;pressure;altitude;pressure_sealevel;temperature;humidity
42289;BME280;30230;47.520;19.016;2023-02-25T00:01:47;97367.91;;;8.54;83.66
42289;BME280;30230;47.520;19.016;2023-02-25T00:03:51;97368.97;;;8.53;84.12
42289;BME280;30230;47.520;19.016;2023-02-25T00:05:52;97337.38;;;8.49;83.65
42289;BME280;30230;47.520;19.016;2023-02-25T00:07:52;97380.38;;;8.72;83.52
42289;BME280;30230;47.520;19.016;2023-02-25T00:09:53;97368.78;;;8.72;83.03
42289;BME280;30230;47.520;19.016;2023-02-25T00:11:53;97337.03;;;8.45;83.05
42289;BME280;30230;47.520;19.016;2023-02-25T00:13:54;97324.16;;;8.47;82.83
42289;BME280;30230;47.520;19.016;2023-02-25T00:15:55;97378.88;;;8.65;83.37
42289;BME280;30230;47.520;19.016;2023-02-25T00:18:00;97357.16;;;8.54;83.10
42289;BME280;30230;47.520;19.016;2023-02-25T00:22:05;97371.06;;;8.51;84.20
42289;BME280;30230;47.520;19.016;2023-02-25T00:24:05;97362.53;;;8.54;83.81
42289;BME280;30230;47.520;19.016;2023-02-25T00:26:06;97333.06;;;8.36;84.26
42289;BME280;30230;47.520;19.016;2023-02-25T00:28:08;97357.47;;;8.58;84.04
42289;BME280;30230;47.520;19.016;2023-02-25T00:30:09;97355.63;;;8.58;84.07
42289;BME280;30230;47.520;19.016;2023-02-25T00:32:10;97257.13;;;7.82;84.81
42289;BME280;30230;47.520;19.016;2023-02-25T00:34:10;97343.59;;;8.49;84.75
42289;BME280;30230;47.520;19.016;2023-02-25T00:36:16;97342.41;;;8.45;84.37
42289;BME280;30230;47.520;19.016;2023-02-25T00:38:20;97343.34;;;8.51;84.53
42289;BME280;30230;47.520;19.016;2023-02-25T00:40:21;97315.88;;;8.49;84.28
42289;BME280;30230;47.520;19.016;2023-02-25T00:42:22;97290.28;;;8.23;84.17
42289;BME280;30230;47.520;19.016;2023-02-25T00:44:22;97221.03;;;7.78;84.54
42289;BME280;30230;47.520;19.016;2023-02-25T00:46:23;97317.84;;;8.30;85.36
42289;BME280;30230;47.520;19.016;2023-02-25T00:48:23;97301.03;;;8.23;84.74
42289;BME280;30230;47.520;19.016;2023-02-25T00:50:25;97316.47;;;8.27;85.75
42289;BME280;30230;47.520;19.016;2023-02-25T00:52:25;97310.13;;;8.22;85.35
42289;BME280;30230;47.520;19.016;2023-02-25T00:54:26;97297.97;;;8.31;85.04
42289;BME280;30230;47.520;19.016;2023-02-25T00:56:26;97308.00;;;8.35;84.86
42289;BME280;30230;47.520;19.016;2023-02-25T00:58:27;97303.03;;;8.27;84.90
42289;BME280;30230;47.520;19.016;2023-02-25T01:00:28;97290.97;;;8.30;85.28
42289;BME280;30230;47.520;19.016;2023-02-25T01:04:49;97194.03;;;7.73;84.69
42289;BME280;30230;47.520;19.016;2023-02-25T01:06:49;97279.72;;;8.33;85.18
42289;BME280;30230;47.520;19.016;2023-02-25T01:08:50;97264.06;;;8.30;84.38
42289;BME280;30230;47.520;19.016;2023-02-25T01:10:50;97239.69;;;8.08;84.53
42289;BME280;30230;47.520;19.016;2023-02-25T01:12:50;97258.09;;;8.28;84.54
42289;BME280;30230;47.520;19.016;2023-02-25T01:14:54;97255.19;;;8.29;84.24
42289;BME280;30230;47.520;19.016;2023-02-25T01:16:55;97160.88;;;7.67;84.19
42289;BME280;30230;47.520;19.016;2023-02-25T01:18:59;97256.94;;;8.24;84.41
42289;BME280;30230;47.520;19.016;2023-02-25T01:23:00;97256.44;;;8.27;84.46
42289;BME280;30230;47.520;19.016;2023-02-25T01:25:01;97248.63;;;8.37;83.51
42289;BME280;30230;47.520;19.016;2023-02-25T01:27:02;97251.78;;;8.34;83.65
42289;BME280;30230;47.520;19.016;2023-02-25T01:29:10;97239.03;;;8.29;84.12
42289;BME280;30230;47.520;19.016;2023-02-25T01:31:19;97240.66;;;8.42;83.73
42289;BME280;30230;47.520;19.016;2023-02-25T01:33:23;97205.66;;;8.14;83.51
42289;BME280;30230;47.520;19.016;2023-02-25T01:35:24;97196.09;;;7.94;84.38
42289;BME280;30230;47.520;19.016;2023-02-25T01:37:25;97193.69;;;7.81;84.30
42289;BME280;30230;47.520;19.016;2023-02-25T01:39:26;97198.13;;;7.87;84.66
42289;BME280;30230;47.520;19.016;2023-02-25T01:41:28;97231.16;;;7.99;85.16
42289;BME280;30230;47.520;19.016;2023-02-25T01:43:29;97245.28;;;8.18;84.39
42289;BME280;30230;47.520;19.016;2023-02-25T01:45:30;97123.66;;;7.47;84.66
42289;BME280;30230;47.520;19.016;2023-02-25T01:47:35;97127.00;;;7.54;83.69
42289;BME280;30230;47.520;19.016;2023-02-25T01:49:42;97141.59;;;7.70;83.59
42289;BME280;30230;47.520;19.016;2023-02-25T01:51:47;97228.28;;;8.29;83.76
42289;BME280;30230;47.520;19.016;2023-02-25T01:53:48;97226.75;;;8.22;83.93
42289;BME280;30230;47.520;19.016;2023-02-25T01:55:58;97223.75;;;8.18;84.12
42289;BME280;30230;47.520;19.016;2023-02-25T01:58:00;97190.16;;;7.92;84.35
42289;BME280;30230;47.520;19.016;2023-02-25T02:00:03;97227.50;;;8.17;84.97
42289;BME280;30230;47.520;19.016;2023-02-25T02:02:12;97225.31;;;7.91;85.42
42289;BME280;30230;47.520;19.016;2023-02-25T02:04:15;97213.19;;;7.88;85.89
42289;BME280;30230;47.520;19.016;2023-02-25T02:08:27;97214.47;;;7.97;84.99
42289;BME280;30230;47.520;19.016;2023-02-25T02:10:28;97214.25;;;7.87;85.83
42289;BME280;30230;47.520;19.016;2023-02-25T02:12:35;97207.44;;;7.96;84.91
42289;BME280;30230;47.520;19.016;2023-02-25T02:14:39;97113.84;;;7.41;84.53
42289;BME280;30230;47.520;19.016;2023-02-25T02:18:52;97171.03;;;7.77;84.59
42289;BME280;30230;47.520;19.016;2023-02-25T02:30:44;97106.56;;;7.53;84.64
42289;BME280;30230;47.520;19.016;2023-02-25T02:37:17;97109.94;;;7.72;83.71
42289;BME280;30230;47.520;19.016;2023-02-25T02:39:34;97137.91;;;7.88;83.95
42289;BME280;30230;47.520;19.016;2023-02-25T02:46:18;97155.69;;;7.89;84.55
42289;BME280;30230;47.520;19.016;2023-02-25T02:48:34;97156.75;;;7.88;84.77
42289;BME280;30230;47.520;19.016;2023-02-25T02:50:45;97159.53;;;7.93;84.11
42289;BME280;30230;47.520;19.016;2023-02-25T02:52:50;97157.31;;;7.90;84.49
42289;BME280;30230;47.520;19.016;2023-02-25T02:55:02;97157.91;;;7.92;84.60
42289;BME280;30230;47.520;19.016;2023-02-25T02:57:04;97161.66;;;7.91;83.98
42289;BME280;30230;47.520;19.016;2023-02-25T02:59:10;97166.53;;;7.94;84.22
42289;BME280;30230;47.520;19.016;2023-02-25T03:01:20;97155.69;;;7.89;84.35
42289;BME280;30230;47.520;19.016;2023-02-25T03:03:34;97151.72;;;7.92;84.05
42289;BME280;30230;47.520;19.016;2023-02-25T03:05:37;97153.09;;;7.94;83.93
42289;BME280;30230;47.520;19.016;2023-02-25T03:07:44;97166.38;;;8.01;83.78
42289;BME280;30230;47.520;19.016;2023-02-25T03:09:59;97164.66;;;7.95;84.13
42289;BME280;30230;47.520;19.016;2023-02-25T03:12:01;97173.75;;;8.05;83.34
42289;BME280;30230;47.520;19.016;2023-02-25T03:14:01;97177.59;;;8.09;83.40
42289;BME280;30230;47.520;19.016;2023-02-25T03:16:05;97176.22;;;7.95;84.16
42289;BME280;30230;47.520;19.016;2023-02-25T03:20:35;97169.28;;;8.11;82.80
42289;BME280;30230;47.520;19.016;2023-02-25T03:22:40;97180.78;;;8.06;83.45
42289;BME280;30230;47.520;19.016;2023-02-25T03:24:58;97176.44;;;8.05;83.16
42289;BME280;30230;47.520;19.016;2023-02-25T03:27:22;97174.22;;;8.02;83.29
42289;BME280;30230;47.520;19.016;2023-02-25T03:29:24;97170.84;;;7.95;83.71
42289;BME280;30230;47.520;19.016;2023-02-25T03:31:30;97176.56;;;7.99;83.53
42289;BME280;30230;47.520;19.016;2023-02-25T03:33:39;97179.72;;;8.07;83.14
42289;BME280;30230;47.520;19.016;2023-02-25T03:35:47;97164.34;;;7.91;83.65
42289;BME280;30230;47.520;19.016;2023-02-25T03:37:55;97174.38;;;7.84;84.18
42289;BME280;30230;47.520;19.016;2023-02-25T03:40:03;97161.78;;;7.73;84.62
42289;BME280;30230;47.520;19.016;2023-02-25T03:42:14;97181.28;;;7.92;84.21
42289;BME280;30230;47.520;19.016;2023-02-25T03:44:21;97129.69;;;7.54;84.39
42289;BME280;30230;47.520;19.016;2023-02-25T03:46:24;97170.53;;;7.92;83.92
42289;BME280;30230;47.520;19.016;2023-02-25T03:48:26;97165.16;;;7.92;84.03
42289;BME280;30230;47.520;19.016;2023-02-25T03:50:30;97178.69;;;7.85;84.50
42289;BME280;30230;47.520;19.016;2023-02-25T03:52:33;97166.78;;;7.93;83.82
42289;BME280;30230;47.520;19.016;2023-02-25T03:54:34;97171.66;;;7.96;83.79
42289;BME280;30230;47.520;19.016;2023-02-25T03:56:45;97171.00;;;7.89;84.21
42289;BME280;30230;47.520;19.016;2023-02-25T03:58:46;97170.53;;;7.92;83.70
42289;BME280;30230;47.520;19.016;2023-02-25T04:00:51;97174.13;;;7.97;83.56
42289;BME280;30230;47.520;19.016;2023-02-25T04:02:53;97175.19;;;7.96;83.83
42289;BME280;30230;47.520;19.016;2023-02-25T04:04:54;97173.31;;;7.97;83.57
42289;BME280;30230;47.520;19.016;2023-02-25T04:06:54;97174.25;;;7.91;83.89
42289;BME280;30230;47.520;19.016;2023-02-25T04:08:55;97172.16;;;7.93;83.88
42289;BME280;30230;47.520;19.016;2023-02-25T04:10:55;97170.19;;;7.88;84.37
42289;BME280;30230;47.520;19.016;2023-02-25T04:12:56;97164.44;;;7.84;84.74
42289;BME280;30230;47.520;19.016;2023-02-25T04:14:56;97163.28;;;7.92;84.07
42289;BME280;30230;47.520;19.016;2023-02-25T04:16:57;97067.53;;;7.34;83.58
42289;BME280;30230;47.520;19.016;2023-02-25T04:18:57;97131.56;;;7.66;83.57
42289;BME280;30230;47.520;19.016;2023-02-25T04:20:58;97160.94;;;7.84;84.13
42289;BME280;30230;47.520;19.016;2023-02-25T04:23:00;97171.00;;;7.89;84.03
42289;BME280;30230;47.520;19.016;2023-02-25T04:25:01;97189.44;;;7.97;84.33
42289;BME280;30230;47.520;19.016;2023-02-25T04:27:01;97185.09;;;7.96;83.83
42289;BME280;30230;47.520;19.016;2023-02-25T04:29:02;97194.94;;;7.90;84.29
42289;BME280;30230;47.520;19.016;2023-02-25T04:31:03;97198.94;;;7.88;84.23
42289;BME280;30230;47.520;19.016;2023-02-25T04:33:04;97197.63;;;8.02;83.58
42289;BME280;30230;47.520;19.016;2023-02-25T04:35:05;97200.97;;;8.09;83.25
42289;BME280;30230;47.520;19.016;2023-02-25T04:37:09;97203.09;;;8.07;82.76
42289;BME280;30230;47.520;19.016;2023-02-25T04:39:10;97217.78;;;8.16;82.63
42289;BME280;30230;47.520;19.016;2023-02-25T04:41:10;97213.59;;;8.08;83.06
42289;BME280;30230;47.520;19.016;2023-02-25T04:43:11;97224.00;;;8.05;83.42
42289;BME280;30230;47.520;19.016;2023-02-25T04:45:12;97221.22;;;8.12;83.17
42289;BME280;30230;47.520;19.016;2023-02-25T04:47:13;97235.63;;;8.34;82.73
42289;BME280;30230;47.520;19.016;2023-02-25T04:49:13;97236.69;;;8.33;80.71
42289;BME280;30230;47.520;19.016;2023-02-25T04:51:13;97231.13;;;8.23;80.77
42289;BME280;30230;47.520;19.016;2023-02-25T04:53:14;97225.72;;;8.23;79.95
42289;BME280;30230;47.520;19.016;2023-02-25T04:55:15;97232.78;;;8.12;80.68
42289;BME280;30230;47.520;19.016;2023-02-25T04:57:16;97225.63;;;8.06;80.50
42289;BME280;30230;47.520;19.016;2023-02-25T04:59:16;97229.03;;;8.13;80.92
42289;BME280;30230;47.520;19.016;2023-02-25T05:01:16;97244.56;;;8.11;81.23
42289;BME280;30230;47.520;19.016;2023-02-25T05:03:17;97239.00;;;7.89;83.50
42289;BME280;30230;47.520;19.016;2023-02-25T05:05:18;97242.72;;;8.00;83.42
42289;BME280;30230;47.520;19.016;2023-02-25T05:07:18;97244.13;;;7.91;85.31
42289;BME280;30230;47.520;19.016;2023-02-25T05:09:18;97247.28;;;7.99;85.57
42289;BME280;30230;47.520;19.016;2023-02-25T05:11:20;97248.16;;;7.76;87.13
42289;BME280;30230;47.520;19.016;2023-02-25T05:13:21;97254.34;;;7.77;87.44
42289;BME280;30230;47.520;19.016;2023-02-25T05:15:21;97263.91;;;7.73;87.21
42289;BME280;30230;47.520;19.016;2023-02-25T05:17:22;97261.56;;;7.65;86.97
42289;BME280;30230;47.520;19.016;2023-02-25T05:19:24;97266.69;;;7.54;87.84
42289;BME280;30230;47.520;19.016;2023-02-25T05:21:25;97252.34;;;7.49;87.43
42289;BME280;30230;47.520;19.016;2023-02-25T05:23:26;97274.19;;;7.64;86.73
42289;BME280;30230;47.520;19.016;2023-02-25T05:25:26;97284.13;;;7.64;84.98
42289;BME280;30230;47.520;19.016;2023-02-25T05:27:26;97289.50;;;7.52;84.83
42289;BME280;30230;47.520;19.016;2023-02-25T05:29:27;97296.72;;;7.40;85.08
42289;BME280;30230;47.520;19.016;2023-02-25T05:31:27;97305.47;;;7.35;86.05
42289;BME280;30230;47.520;19.016;2023-02-25T05:33:28;97298.47;;;7.34;86.12
42289;BME280;30230;47.520;19.016;2023-02-25T05:35:28;97290.19;;;7.36;87.20
42289;BME280;30230;47.520;19.016;2023-02-25T05:37:31;97290.50;;;7.16;88.13
42289;BME280;30230;47.520;19.016;2023-02-25T05:39:32;97298.84;;;7.08;89.55
42289;BME280;30230;47.520;19.016;2023-02-25T05:41:32;97297.09;;;7.01;88.83
42289;BME280;30230;47.520;19.016;2023-02-25T05:43:33;97289.41;;;7.05;90.50
42289;BME280;30230;47.520;19.016;2023-02-25T05:45:34;97280.97;;;6.90;90.67
42289;BME280;30230;47.520;19.016;2023-02-25T05:47:35;97270.91;;;6.85;90.25
42289;BME280;30230;47.520;19.016;2023-02-25T05:49:35;97291.31;;;6.86;89.17
42289;BME280;30230;47.520;19.016;2023-02-25T05:51:35;97288.19;;;6.89;88.82
42289;BME280;30230;47.520;19.016;2023-02-25T05:53:36;97286.19;;;6.85;88.85
42289;BME280;30230;47.520;19.016;2023-02-25T05:55:41;97296.75;;;6.98;88.55
42289;BME280;30230;47.520;19.016;2023-02-25T05:57:41;97302.75;;;6.82;89.19
42289;BME280;30230;47.520;19.016;2023-02-25T05:59:41;97304.41;;;6.83;88.83
42289;BME280;30230;47.520;19.016;2023-02-25T06:01:42;97322.53;;;6.99;86.65
42289;BME280;30230;47.520;19.016;2023-02-25T06:03:44;97308.25;;;6.87;88.21
42289;BME280;30230;47.520;19.016;2023-02-25T06:05:45;97312.72;;;6.93;87.54
42289;BME280;30230;47.520;19.016;2023-02-25T06:07:45;97334.91;;;6.70;88.24
42289;BME280;30230;47.520;19.016;2023-02-25T06:09:47;97325.25;;;6.81;87.05
42289;BME280;30230;47.520;19.016;2023-02-25T06:11:48;97340.09;;;6.83;88.59
42289;BME280;30230;47.520;19.016;2023-02-25T06:13:51;97348.22;;;6.76;89.10
42289;BME280;30230;47.520;19.016;2023-02-25T06:15:51;97349.16;;;6.52;91.31
42289;BME280;30230;47.520;19.016;2023-02-25T06:17:51;97355.25;;;6.59;92.85
42289;BME280;30230;47.520;19.016;2023-02-25T06:19:52;97352.13;;;6.44;94.55
42289;BME280;30230;47.520;19.016;2023-02-25T06:21:53;97351.47;;;6.30;95.58
42289;BME280;30230;47.520;19.016;2023-02-25T06:23:54;97345.50;;;6.28;96.11
42289;BME280;30230;47.520;19.016;2023-02-25T06:25:56;97353.16;;;6.24;97.51
42289;BME280;30230;47.520;19.016;2023-02-25T06:27:58;97355.84;;;6.24;97.46
42289;BME280;30230;47.520;19.016;2023-02-25T06:29:59;97362.84;;;6.07;98.03
42289;BME280;30230;47.520;19.016;2023-02-25T06:32:01;97365.38;;;6.02;98.50
42289;BME280;30230;47.520;19.016;2023-02-25T06:34:05;97363.81;;;6.13;98.36
42289;BME280;30230;47.520;19.016;2023-02-25T06:36:06;97353.09;;;5.94;97.87
42289;BME280;30230;47.520;19.016;2023-02-25T06:38:07;97347.72;;;5.94;97.05
42289;BME280;30230;47.520;19.016;2023-02-25T06:40:10;97354.22;;;5.80;97.59
42289;BME280;30230;47.520;19.016;2023-02-25T06:42:14;97369.66;;;5.78;97.43
42289;BME280;30230;47.520;19.016;2023-02-25T06:44:15;97361.84;;;5.77;96.38
42289;BME280;30230;47.520;19.016;2023-02-25T06:46:15;97363.63;;;5.89;95.23
42289;BME280;30230;47.520;19.016;2023-02-25T06:48:15;97377.22;;;5.88;95.57
42289;BME280;30230;47.520;19.016;2023-02-25T06:50:16;97378.84;;;5.95;92.93
42289;BME280;30230;47.520;19.016;2023-02-25T06:52:16;97382.69;;;5.99;92.21
42289;BME280;30230;47.520;19.016;2023-02-25T06:54:17;97394.69;;;5.97;91.86
42289;BME280;30230;47.520;19.016;2023-02-25T06:56:19;97391.34;;;6.02;90.50
42289;BME280;30230;47.520;19.016;2023-02-25T06:58:20;97398.66;;;5.94;90.98
42289;BME280;30230;47.520;19.016;2023-02-25T07:00:21;97394.72;;;5.90;91.31
42289;BME280;30230;47.520;19.016;2023-02-25T07:02:21;97399.22;;;5.96;89.39
42289;BME280;30230;47.520;19.016;2023-02-25T07:04:22;97408.38;;;5.82;90.65
42289;BME280;30230;47.520;19.016;2023-02-25T07:06:22;97418.06;;;5.83;91.05
42289;BME280;30230;47.520;19.016;2023-02-25T07:08:22;97435.19;;;5.82;90.45
42289;BME280;30230;47.520;19.016;2023-02-25T07:10:23;97424.22;;;5.84;90.70
42289;BME280;30230;47.520;19.016;2023-02-25T07:12:24;97422.00;;;5.81;90.73
42289;BME280;30230;47.520;19.016;2023-02-25T07:14:24;97421.63;;;5.77;89.89
42289;BME280;30230;47.520;19.016;2023-02-25T07:16:25;97426.97;;;5.77;88.73
42289;BME280;30230;47.520;19.016;2023-02-25T07:18:26;97418.84;;;5.90;88.14
42289;BME280;30230;47.520;19.016;2023-02-25T07:20:26;97426.53;;;5.80;87.14
42289;BME280;30230;47.520;19.016;2023-02-25T07:22:27;97429.75;;;5.89;86.89
42289;BME280;30230;47.520;19.016;2023-02-25T07:24:27;97424.47;;;5.82;84.88
42289;BME280;30230;47.520;19.016;2023-02-25T07:26:27;97419.47;;;5.92;83.88
42289;BME280;30230;47.520;19.016;2023-02-25T07:28:28;97431.56;;;6.02;83.74
42289;BME280;30230;47.520;19.016;2023-02-25T07:30:28;97420.31;;;5.86;82.57
42289;BME280;30230;47.520;19.016;2023-02-25T07:32:29;97437.72;;;6.02;80.93
42289;BME280;30230;47.520;19.016;2023-02-25T07:34:29;97407.34;;;5.83;80.56
42289;BME280;30230;47.520;19.016;2023-02-25T07:36:33;97416.19;;;5.84;81.90
42289;BME280;30230;47.520;19.016;2023-02-25T07:38:37;97428.13;;;5.94;81.74
42289;BME280;30230;47.520;19.016;2023-02-25T07:40:38;97423.78;;;5.93;81.59
42289;BME280;30230;47.520;19.016;2023-02-25T07:42:40;97426.06;;;5.90;82.92
42289;BME280;30230;47.520;19.016;2023-02-25T07:44:40;97425.34;;;5.76;81.69
42289;BME280;30230;47.520;19.016;2023-02-25T07:46:41;97422.09;;;5.67;82.13
42289;BME280;30230;47.520;19.016;2023-02-25T07:48:41;97407.28;;;5.65;80.43
42289;BME280;30230;47.520;19.016;2023-02-25T07:50:41;97418.25;;;5.57;79.55
42289;BME280;30230;47.520;19.016;2023-02-25T07:52:43;97417.66;;;5.55;79.93
42289;BME280;30230;47.520;19.016;2023-02-25T07:54:44;97416.78;;;5.61;79.68
42289;BME280;30230;47.520;19.016;2023-02-25T07:56:44;97427.94;;;5.58;80.02
42289;BME280;30230;47.520;19.016;2023-02-25T07:58:45;97424.00;;;5.60;79.12
42289;BME280;30230;47.520;19.016;2023-02-25T08:00:45;97413.06;;;5.62;78.64
42289;BME280;30230;47.520;19.016;2023-02-25T08:02:46;97418.09;;;5.52;77.21
42289;BME280;30230;47.520;19.016;2023-02-25T08:04:46;97425.22;;;5.64;79.05
42289;BME280;30230;47.520;19.016;2023-02-25T08:06:47;97435.13;;;5.64;78.61
42289;BME280;30230;47.520;19.016;2023-02-25T08:08:48;97426.47;;;5.62;78.34
42289;BME280;30230;47.520;19.016;2023-02-25T08:10:51;97436.47;;;5.48;79.63
42289;BME280;30230;47.520;19.016;2023-02-25T08:12:51;97428.38;;;5.55;79.73
42289;BME280;30230;47.520;19.016;2023-02-25T08:14:51;97428.72;;;5.65;79.58
42289;BME280;30230;47.520;19.016;2023-02-25T08:16:55;97424.84;;;5.61;79.75
42289;BME280;30230;47.520;19.016;2023-02-25T08:18:55;97432.16;;;5.72;78.80
42289;BME280;30230;47.520;19.016;2023-02-25T08:20:56;97412.31;;;5.55;78.39
42289;BME280;30230;47.520;19.016;2023-02-25T08:22:57;97436.13;;;5.69;80.06
42289;BME280;30230;47.520;19.016;2023-02-25T08:24:58;97427.44;;;5.74;78.87
42289;BME280;30230;47.520;19.016;2023-02-25T08:26:58;97439.97;;;5.73;79.43
42289;BME280;30230;47.520;19.016;2023-02-25T08:28:59;97430.34;;;5.66;79.91
42289;BME280;30230;47.520;19.016;2023-02-25T08:30:59;97431.75;;;5.68;79.30
42289;BME280;30230;47.520;19.016;2023-02-25T08:33:00;97447.06;;;5.61;79.60
42289;BME280;30230;47.520;19.016;2023-02-25T08:35:00;97442.72;;;5.67;80.06
42289;BME280;30230;47.520;19.016;2023-02-25T08:37:01;97450.16;;;5.65;81.42
42289;BME280;30230;47.520;19.016;2023-02-25T08:39:01;97456.38;;;5.59;80.91
42289;BME280;30230;47.520;19.016;2023-02-25T08:41:02;97464.94;;;5.67;81.95
42289;BME280;30230;47.520;19.016;2023-02-25T08:43:02;97451.03;;;5.59;81.61
42289;BME280;30230;47.520;19.016;2023-02-25T08:45:03;97468.25;;;5.69;81.88
42289;BME280;30230;47.520;19.016;2023-02-25T08:47:04;97464.06;;;5.80;81.13
42289;BME280;30230;47.520;19.016;2023-02-25T08:49:04;97473.13;;;5.79;82.18
42289;BME280;30230;47.520;19.016;2023-02-25T08:51:07;97440.03;;;5.67;81.91
42289;BME280;30230;47.520;19.016;2023-02-25T08:53:08;97455.06;;;5.68;83.17
42289;BME280;30230;47.520;19.016;2023-02-25T08:55:08;97446.13;;;5.81;83.28
42289;BME280;30230;47.520;19.016;2023-02-25T08:57:10;97462.25;;;5.74;82.44
42289;BME280;30230;47.520;19.016;2023-02-25T08:59:12;97480.66;;;5.64;83.38
42289;BME280;30230;47.520;19.016;2023-02-25T09:01:15;97469.09;;;5.63;83.37
42289;BME280;30230;47.520;19.016;2023-02-25T09:03:15;97475.31;;;5.64;83.38
42289;BME280;30230;47.520;19.016;2023-02-25T09:05:16;97477.69;;;5.72;83.45
42289;BME280;30230;47.520;19.016;2023-02-25T09:07:16;97479.25;;;5.86;82.49
42289;BME280;30230;47.520;19.016;2023-02-25T09:09:19;97470.78;;;5.89;80.59
42289;BME280;30230;47.520;19.016;2023-02-25T09:11:21;97463.16;;;5.93;79.21
42289;BME280;30230;47.520;19.016;2023-02-25T09:13:22;97458.41;;;5.88;80.73
42289;BME280;30230;47.520;19.016;2023-02-25T09:15:22;97463.78;;;5.95;79.75
42289;BME280;30230;47.520;19.016;2023-02-25T09:17:24;97460.72;;;5.85;78.29
42289;BME280;30230;47.520;19.016;2023-02-25T09:19:24;97468.13;;;5.89;79.04
42289;BME280;30230;47.520;19.016;2023-02-25T09:21:24;97457.81;;;5.86;78.70
42289;BME280;30230;47.520;19.016;2023-02-25T09:23:25;97470.38;;;5.92;78.10
42289;BME280;30230;47.520;19.016;2023-02-25T09:25:25;97492.38;;;6.01;76.83
42289;BME280;30230;47.520;19.016;2023-02-25T09:27:26;97512.63;;;5.90;77.48
42289;BME280;30230;47.520;19.016;2023-02-25T09:29:27;97533.03;;;5.91;77.92
42289;BME280;30230;47.520;19.016;2023-02-25T09:31:27;97521.47;;;5.91;76.32
42289;BME280;30230;47.520;19.016;2023-02-25T09:33:30;97518.84;;;5.84;77.46
42289;BME280;30230;47.520;19.016;2023-02-25T09:35:31;97514.91;;;5.87;75.51
42289;BME280;30230;47.520;19.016;2023-02-25T09:37:33;97499.84;;;5.92;76.21
42289;BME280;30230;47.520;19.016;2023-02-25T09:39:34;97493.44;;;5.93;76.80
42289;BME280;30230;47.520;19.016;2023-02-25T09:43:44;97467.31;;;5.82;75.08
42289;BME280;30230;47.520;19.016;2023-02-25T09:45:48;97475.13;;;5.84;75.51
42289;BME280;30230;47.520;19.016;2023-02-25T09:47:57;97469.75;;;5.90;74.56
42289;BME280;30230;47.520;19.016;2023-02-25T09:50:05;97473.06;;;5.92;74.06
42289;BME280;30230;47.520;19.016;2023-02-25T09:54:44;97494.91;;;5.89;74.04
42289;BME280;30230;47.520;19.016;2023-02-25T09:56:46;97482.91;;;5.98;73.72
42289;BME280;30230;47.520;19.016;2023-02-25T09:58:52;97491.19;;;6.22;73.80
42289;BME280;30230;47.520;19.016;2023-02-25T10:01:02;97481.03;;;6.24;71.83
42289;BME280;30230;47.520;19.016;2023-02-25T10:07:26;97492.47;;;6.38;71.60
42289;BME280;30230;47.520;19.016;2023-02-25T10:09:36;97502.47;;;6.49;71.38
42289;BME280;30230;47.520;19.016;2023-02-25T10:12:13;97471.44;;;6.96;66.60
42289;BME280;30230;47.520;19.016;2023-02-25T10:16:44;97443.72;;;7.32;67.66
42289;BME280;30230;47.520;19.016;2023-02-25T10:25:27;97496.56;;;7.20;62.22
42289;BME280;30230;47.520;19.016;2023-02-25T10:27:37;97496.41;;;7.15;60.13
42289;BME280;30230;47.520;19.016;2023-02-25T10:29:49;97487.63;;;7.08;60.30
42289;BME280;30230;47.520;19.016;2023-02-25T10:31:57;97494.41;;;7.11;61.02
42289;BME280;30230;47.520;19.016;2023-02-25T10:34:22;97477.22;;;7.30;59.88
42289;BME280;30230;47.520;19.016;2023-02-25T10:36:30;97486.63;;;7.39;59.25
42289;BME280;30230;47.520;19.016;2023-02-25T10:38:33;97481.25;;;7.21;59.72
42289;BME280;30230;47.520;19.016;2023-02-25T10:40:34;97480.28;;;7.15;60.13
42289;BME280;30230;47.520;19.016;2023-02-25T10:42:34;97502.72;;;7.39;61.73
42289;BME280;30230;47.520;19.016;2023-02-25T10:44:35;97499.03;;;7.52;60.65
42289;BME280;30230;47.520;19.016;2023-02-25T10:46:56;97488.38;;;7.75;60.11
42289;BME280;30230;47.520;19.016;2023-02-25T10:49:00;97482.44;;;7.85;59.44
42289;BME280;30230;47.520;19.016;2023-02-25T10:51:12;97494.91;;;7.79;57.61
42289;BME280;30230;47.520;19.016;2023-02-25T10:53:17;97478.25;;;7.59;55.24
42289;BME280;30230;47.520;19.016;2023-02-25T10:55:43;97484.53;;;7.83;56.86
42289;BME280;30230;47.520;19.016;2023-02-25T10:57:50;97498.25;;;8.05;55.71
42289;BME280;30230;47.520;19.016;2023-02-25T11:00:27;97494.84;;;8.51;55.46
42289;BME280;30230;47.520;19.016;2023-02-25T11:02:30;97491.66;;;9.01;52.47
42289;BME280;30230;47.520;19.016;2023-02-25T11:04:36;97499.53;;;8.79;51.20
42289;BME280;30230;47.520;19.016;2023-02-25T11:06:38;97512.41;;;8.89;51.72
42289;BME280;30230;47.520;19.016;2023-02-25T11:08:40;97504.28;;;9.12;51.31
42289;BME280;30230;47.520;19.016;2023-02-25T11:10:41;97511.78;;;9.10;51.35
42289;BME280;30230;47.520;19.016;2023-02-25T11:12:47;97492.91;;;9.51;49.28
42289;BME280;30230;47.520;19.016;2023-02-25T11:14:48;97500.75;;;9.81;49.90
42289;BME280;30230;47.520;19.016;2023-02-25T11:16:48;97503.16;;;9.65;48.56
42289;BME280;30230;47.520;19.016;2023-02-25T11:19:00;97490.31;;;9.84;47.90
42289;BME280;30230;47.520;19.016;2023-02-25T11:21:06;97485.28;;;10.22;48.69
42289;BME280;30230;47.520;19.016;2023-02-25T11:23:19;97468.75;;;10.01;47.34
42289;BME280;30230;47.520;19.016;2023-02-25T11:25:40;97462.25;;;9.69;47.31
42289;BME280;30230;47.520;19.016;2023-02-25T11:27:45;97457.06;;;9.50;47.96
42289;BME280;30230;47.520;19.016;2023-02-25T11:29:49;97453.22;;;9.46;47.67
42289;BME280;30230;47.520;19.016;2023-02-25T11:31:57;97436.97;;;10.03;46.38
42289;BME280;30230;47.520;19.016;2023-02-25T11:34:01;97421.66;;;9.92;47.61
42289;BME280;30230;47.520;19.016;2023-02-25T11:36:04;97421.19;;;10.12;46.99
42289;BME280;30230;47.520;19.016;2023-02-25T11:38:27;97417.13;;;10.26;48.33
42289;BME280;30230;47.520;19.016;2023-02-25T11:40:32;97399.59;;;10.12;46.68
42289;BME280;30230;47.520;19.016;2023-02-25T11:42:39;97371.31;;;9.81;46.86